Time;durP1;ratioP1;P1;durP2;ratioP2;P2;SDS_P1;SDS_P2;PMS_P1;PMS_P2;Temp;Humidity;BMP_temperature;BMP_pressure;BME280_temperature;BME280_humidity;BME280_pressure;Samples;Min_cycle;Max_cycle;Signal;HPM_P1;HPM_P2
2023/07/04 00:01:04;;;;;;;10.93;3.28;;;17.80;99.90;;;;;;5066149;28;20056;-56
2023/07/04 00:03:31;;;;;;;15.32;3.50;;;17.80;99.90;;;;;;5066418;28;20551;-56
2023/07/04 00:05:57;;;;;;;13.63;3.65;;;17.90;99.90;;;;;;5065075;28;20033;-56
2023/07/04 00:08:28;;;;;;;12.90;2.90;;;17.90;99.90;;;;;;5065413;28;20611;-56
2023/07/04 00:10:57;;;;;;;12.48;3.20;;;17.90;99.90;;;;;;5045753;28;20033;-55
2023/07/04 00:13:23;;;;;;;10.15;2.80;;;17.80;99.90;;;;;;5045665;28;20037;-56
2023/07/04 00:15:50;;;;;;;13.82;3.40;;;17.90;99.90;;;;;;5054511;28;20087;-56
2023/07/04 00:18:21;;;;;;;10.60;3.20;;;17.90;99.90;;;;;;5065061;28;20071;-56
2023/07/04 00:20:47;;;;;;;12.18;3.05;;;17.80;99.90;;;;;;5065932;28;20036;-56
2023/07/04 00:23:13;;;;;;;12.68;3.25;;;17.70;99.90;;;;;;5065622;28;20063;-56
2023/07/04 00:25:38;;;;;;;12.32;3.30;;;17.70;99.90;;;;;;5065757;28;20056;-56
2023/07/04 00:28:05;;;;;;;10.90;2.97;;;17.70;99.90;;;;;;5057550;28;20034;-56
2023/07/04 00:30:34;;;;;;;10.32;2.75;;;17.70;99.90;;;;;;5049228;28;20028;-55
2023/07/04 00:32:59;;;;;;;9.85;2.90;;;17.70;99.90;;;;;;5065695;28;20579;-56
2023/07/04 00:35:25;;;;;;;18.58;3.88;;;17.70;99.90;;;;;;5047015;28;20021;-56
2023/07/04 00:37:51;;;;;;;11.05;3.10;;;17.60;99.90;;;;;;5065909;28;20021;-55
2023/07/04 00:40:17;;;;;;;13.70;3.33;;;17.60;99.90;;;;;;5062629;28;20443;-56
2023/07/04 00:42:45;;;;;;;10.90;3.38;;;17.60;99.90;;;;;;5065324;28;20029;-56
2023/07/04 00:45:19;;;;;;;14.13;3.40;;;17.60;99.90;;;;;;5063697;28;20043;-56
2023/07/04 00:47:53;;;;;;;13.55;3.53;;;17.60;99.90;;;;;;5053235;28;20445;-56
2023/07/04 00:50:26;;;;;;;15.57;3.15;;;17.70;99.90;;;;;;5053508;28;20080;-56
2023/07/04 00:52:56;;;;;;;16.65;3.75;;;17.60;99.90;;;;;;5066167;28;20078;-56
2023/07/04 00:55:22;;;;;;;14.20;3.42;;;17.50;99.90;;;;;;5068316;28;20475;-56
2023/07/04 00:57:47;;;;;;;9.57;3.20;;;17.40;99.90;;;;;;5069569;28;20086;-57
2023/07/04 01:00:20;;;;;;;12.55;3.28;;;17.50;99.90;;;;;;5068305;28;20060;-56
2023/07/04 01:02:52;;;;;;;14.82;4.03;;;17.50;99.90;;;;;;5068587;28;20033;-55
2023/07/04 01:05:33;;;;;;;12.50;3.10;;;17.40;99.90;;;;;;5068515;28;20393;-56
2023/07/04 01:08:32;;;;;;;13.57;3.20;;;17.30;99.90;;;;;;5069470;28;20031;-55
2023/07/04 01:11:01;;;;;;;10.23;3.50;;;17.30;99.90;;;;;;5048715;28;20236;-55
2023/07/04 01:13:45;;;;;;;10.02;3.00;;;17.40;99.90;;;;;;5067453;28;20544;-56
2023/07/04 01:16:17;;;;;;;13.65;3.50;;;17.40;99.90;;;;;;5069154;28;20036;-56
2023/07/04 01:18:49;;;;;;;18.55;3.47;;;17.40;99.90;;;;;;5068904;28;20041;-56
2023/07/04 01:21:18;;;;;;;14.73;3.90;;;17.30;99.90;;;;;;5068669;28;20568;-55
2023/07/04 01:24:03;;;;;;;13.18;3.58;;;17.20;99.90;;;;;;5069205;28;20037;-56
2023/07/04 01:26:33;;;;;;;11.77;3.10;;;17.20;99.90;;;;;;5048820;28;20029;-55
2023/07/04 01:29:00;;;;;;;12.00;3.25;;;17.30;99.90;;;;;;5048821;28;20397;-56
2023/07/04 01:31:30;;;;;;;15.68;4.00;;;17.40;99.90;;;;;;5058988;28;20036;-56
2023/07/04 01:33:56;;;;;;;14.10;3.00;;;17.40;99.90;;;;;;5068854;28;20237;-56
2023/07/04 01:36:26;;;;;;;16.77;3.67;;;17.30;99.90;;;;;;5067196;28;20377;-56
2023/07/04 01:38:52;;;;;;;11.05;3.22;;;17.30;99.90;;;;;;5068946;28;20032;-55
2023/07/04 01:41:19;;;;;;;14.77;3.13;;;17.20;99.90;;;;;;5068180;28;20511;-56
2023/07/04 01:43:52;;;;;;;14.00;3.35;;;17.20;99.90;;;;;;5068848;28;20037;-56
2023/07/04 01:46:19;;;;;;;15.63;3.75;;;17.30;99.90;;;;;;5066117;28;20630;-56
2023/07/04 01:48:47;;;;;;;11.32;3.40;;;17.20;99.90;;;;;;5066436;28;20119;-56
2023/07/04 01:51:13;;;;;;;15.98;3.50;;;17.20;99.90;;;;;;5068586;28;20029;-56
2023/07/04 01:53:38;;;;;;;13.70;3.33;;;17.10;99.90;;;;;;5068273;28;20044;-55
2023/07/04 01:56:04;;;;;;;12.07;3.15;;;17.00;99.90;;;;;;5067084;28;20135;-56
2023/07/04 01:58:30;;;;;;;11.73;3.40;;;17.00;99.90;;;;;;5067705;28;20028;-55
2023/07/04 02:00:56;;;;;;;13.25;3.53;;;16.90;99.90;;;;;;5068336;28;20044;-56
2023/07/04 02:03:21;;;;;;;11.30;3.40;;;17.00;99.90;;;;;;5066525;28;20036;-56
2023/07/04 02:05:47;;;;;;;15.23;3.55;;;17.00;99.90;;;;;;5068084;28;20036;-56
2023/07/04 02:08:13;;;;;;;15.48;3.53;;;17.00;99.90;;;;;;5067202;28;20040;-56
2023/07/04 02:10:38;;;;;;;13.30;3.85;;;16.80;99.90;;;;;;5067895;28;20029;-56
2023/07/04 02:13:04;;;;;;;18.85;4.20;;;16.90;99.90;;;;;;5068019;28;20044;-56
2023/07/04 02:15:29;;;;;;;13.27;3.42;;;16.80;99.90;;;;;;5068852;28;20048;-56
2023/07/04 02:17:57;;;;;;;13.57;3.85;;;16.80;99.90;;;;;;5068138;28;20047;-57
2023/07/04 02:20:22;;;;;;;13.27;3.47;;;16.90;99.90;;;;;;5057473;28;20035;-56
2023/07/04 02:22:48;;;;;;;16.33;3.70;;;16.90;99.90;;;;;;5047731;28;20033;-56
2023/07/04 02:25:13;;;;;;;13.80;3.58;;;16.80;99.90;;;;;;5047030;28;20120;-55
2023/07/04 02:27:40;;;;;;;12.60;3.25;;;16.80;99.90;;;;;;5047744;28;20282;-56
2023/07/04 02:30:07;;;;;;;15.75;3.72;;;16.80;99.90;;;;;;5047822;28;20464;-56
2023/07/04 02:32:33;;;;;;;13.35;3.55;;;16.70;99.90;;;;;;5048163;28;20036;-56
2023/07/04 02:34:58;;;;;;;14.32;3.45;;;16.70;99.90;;;;;;5047100;28;20121;-57
2023/07/04 02:37:24;;;;;;;17.88;3.90;;;16.80;99.90;;;;;;5047135;28;20086;-56
2023/07/04 02:39:50;;;;;;;17.75;3.60;;;16.70;99.90;;;;;;5059005;28;20577;-55
2023/07/04 02:42:15;;;;;;;19.58;3.63;;;16.70;99.90;;;;;;5066032;28;20039;-56
2023/07/04 02:44:41;;;;;;;18.60;3.97;;;16.80;99.90;;;;;;5067364;28;20127;-55
2023/07/04 02:47:07;;;;;;;13.65;3.53;;;16.70;99.90;;;;;;5067150;28;20531;-56
2023/07/04 02:49:35;;;;;;;17.58;3.92;;;16.60;99.90;;;;;;5067512;28;20035;-56
2023/07/04 02:52:00;;;;;;;13.57;3.85;;;16.70;99.90;;;;;;5067312;28;20558;-55
2023/07/04 02:54:26;;;;;;;18.65;3.85;;;16.70;99.90;;;;;;5047636;28;20036;-56
2023/07/04 02:56:52;;;;;;;13.07;3.45;;;16.70;99.90;;;;;;5061385;28;20033;-56
2023/07/04 02:59:17;;;;;;;17.30;4.18;;;16.80;99.90;;;;;;5067043;28;20392;-56
2023/07/04 03:01:43;;;;;;;20.42;4.15;;;16.70;99.90;;;;;;5067407;28;20131;-55
2023/07/04 03:04:09;;;;;;;16.25;3.88;;;16.60;99.90;;;;;;5065223;28;20035;-55
2023/07/04 03:06:35;;;;;;;15.20;3.80;;;16.70;99.90;;;;;;5066801;28;20067;-55
2023/07/04 03:09:00;;;;;;;15.35;4.10;;;17.30;99.90;;;;;;5066941;28;20453;-55
2023/07/04 03:11:26;;;;;;;23.17;4.18;;;16.60;99.90;;;;;;5066589;28;20397;-56
2023/07/04 03:13:51;;;;;;;14.60;3.53;;;16.60;99.90;;;;;;5066679;28;20043;-55
2023/07/04 03:16:17;;;;;;;16.17;3.75;;;16.60;99.90;;;;;;5066164;28;20036;-55
2023/07/04 03:18:42;;;;;;;22.35;4.25;;;16.50;99.90;;;;;;5066817;28;20123;-56
2023/07/04 03:21:08;;;;;;;16.73;3.83;;;16.70;99.90;;;;;;5066018;28;20047;-56
2023/07/04 03:23:33;;;;;;;15.45;3.60;;;16.60;99.90;;;;;;5066724;28;20080;-56
2023/07/04 03:25:59;;;;;;;18.60;3.92;;;16.50;99.90;;;;;;5058954;28;20033;-55
2023/07/04 03:28:24;;;;;;;14.30;3.95;;;16.50;99.90;;;;;;5046436;28;20033;-55
2023/07/04 03:30:50;;;;;;;16.55;4.13;;;16.50;99.90;;;;;;5052803;28;20033;-56
2023/07/04 03:33:16;;;;;;;17.83;3.80;;;16.40;99.90;;;;;;5066151;28;20036;-56
2023/07/04 03:35:41;;;;;;;22.48;4.20;;;16.50;99.90;;;;;;5066235;28;20443;-56
2023/07/04 03:38:07;;;;;;;19.40;3.83;;;16.50;99.90;;;;;;5065531;28;20408;-55
2023/07/04 03:40:32;;;;;;;13.85;3.78;;;16.40;99.90;;;;;;5066635;28;20384;-56
2023/07/04 03:42:58;;;;;;;16.08;4.18;;;16.30;99.90;;;;;;5066031;28;20332;-55
2023/07/04 03:45:23;;;;;;;17.38;4.15;;;16.20;99.90;;;;;;5065701;28;20040;-56
2023/07/04 03:47:49;;;;;;;16.80;3.88;;;16.30;99.90;;;;;;5065286;28;20039;-56
2023/07/04 03:50:14;;;;;;;16.40;4.03;;;16.30;99.90;;;;;;5065981;28;20048;-56
2023/07/04 03:52:40;;;;;;;20.10;4.15;;;16.40;99.90;;;;;;5066337;28;20052;-56
2023/07/04 03:55:07;;;;;;;20.20;4.60;;;16.40;99.90;;;;;;5065766;28;20060;-56
2023/07/04 03:57:33;;;;;;;18.75;4.00;;;16.40;99.90;;;;;;5065883;28;20476;-56
2023/07/04 03:59:58;;;;;;;19.83;4.20;;;16.40;99.90;;;;;;5050827;28;20033;-56
2023/07/04 04:02:24;;;;;;;18.13;4.65;;;16.30;99.90;;;;;;5064463;28;20399;-56
2023/07/04 04:04:50;;;;;;;15.05;3.78;;;16.40;99.90;;;;;;5065622;28;20041;-56
2023/07/04 04:07:16;;;;;;;19.63;3.83;;;16.30;99.90;;;;;;5065867;28;20032;-56
2023/07/04 04:09:42;;;;;;;18.25;4.07;;;16.30;99.90;;;;;;5065478;28;20059;-56
2023/07/04 04:12:09;;;;;;;18.63;5.00;;;16.30;99.90;;;;;;5065814;28;20396;-55
2023/07/04 04:14:36;;;;;;;18.30;4.38;;;16.30;99.90;;;;;;5065508;28;20041;-56
2023/07/04 04:17:02;;;;;;;19.90;4.75;;;16.20;99.90;;;;;;5066517;28;20036;-56
2023/07/04 04:19:28;;;;;;;20.33;4.10;;;16.10;99.90;;;;;;5065942;28;20029;-56
2023/07/04 04:21:54;;;;;;;16.20;4.10;;;16.20;99.90;;;;;;5052152;28;20036;-56
2023/07/04 04:24:22;;;;;;;19.48;4.38;;;16.10;99.90;;;;;;5045896;28;20029;-56
2023/07/04 04:26:49;;;;;;;20.38;4.50;;;16.20;99.90;;;;;;5046540;28;20040;-56
2023/07/04 04:29:17;;;;;;;23.23;4.22;;;16.20;99.90;;;;;;5049889;28;20052;-56
2023/07/04 04:31:44;;;;;;;21.17;4.22;;;16.30;99.90;;;;;;5062430;28;20048;-56
2023/07/04 04:34:11;;;;;;;17.67;4.30;;;16.30;99.90;;;;;;5069303;28;20653;-56
2023/07/04 04:36:37;;;;;;;16.65;4.10;;;16.20;99.90;;;;;;5069957;28;20039;-56
2023/07/04 04:39:03;;;;;;;22.10;4.38;;;16.20;99.90;;;;;;5069833;28;20036;-56
2023/07/04 04:41:29;;;;;;;22.00;4.28;;;16.30;99.90;;;;;;5069053;28;20604;-55
2023/07/04 04:43:57;;;;;;;17.63;4.35;;;16.40;99.90;;;;;;5070010;28;20041;-55
2023/07/04 04:46:22;;;;;;;15.38;3.80;;;16.50;99.90;;;;;;5068763;28;20120;-55
2023/07/04 04:48:49;;;;;;;19.20;4.50;;;16.40;99.90;;;;;;5069806;28;20163;-56
2023/07/04 04:51:15;;;;;;;19.60;4.32;;;16.50;99.90;;;;;;5069541;28;20032;-56
2023/07/04 04:53:44;;;;;;;22.70;5.28;;;16.60;99.90;;;;;;5069308;28;20040;-56
2023/07/04 04:56:11;;;;;;;16.48;3.58;;;16.70;99.90;;;;;;5069238;28;20036;-56
2023/07/04 04:58:37;;;;;;;22.98;4.40;;;16.70;99.90;;;;;;5069661;28;20037;-56
2023/07/04 05:01:23;;;;;;;18.88;4.60;;;16.80;99.90;;;;;;5069871;28;20078;-56
2023/07/04 05:03:53;;;;;;;20.38;4.72;;;16.90;99.90;;;;;;5069509;28;20535;-57
2023/07/04 05:06:21;;;;;;;17.48;4.30;;;16.80;99.90;;;;;;5068345;28;20082;-56
2023/07/04 05:08:47;;;;;;;24.08;4.57;;;16.70;99.90;;;;;;5069597;28;20396;-56
2023/07/04 05:11:13;;;;;;;22.02;4.90;;;16.80;99.90;;;;;;5068818;28;20036;-55
2023/07/04 05:13:41;;;;;;;22.35;4.07;;;16.80;99.90;;;;;;5069350;28;20033;-56
2023/07/04 05:16:11;;;;;;;21.83;4.78;;;16.80;99.90;;;;;;5068924;28;20033;-56
2023/07/04 05:18:38;;;;;;;20.95;4.22;;;16.90;99.90;;;;;;5069297;28;20492;-56
2023/07/04 05:21:06;;;;;;;18.98;4.60;;;16.90;99.90;;;;;;5069016;28;20029;-56
2023/07/04 05:23:34;;;;;;;21.23;4.22;;;16.90;99.90;;;;;;5069282;28;20567;-56
2023/07/04 05:26:05;;;;;;;19.05;4.00;;;17.00;99.90;;;;;;5068079;28;20086;-56
2023/07/04 05:28:31;;;;;;;18.38;4.38;;;17.00;99.90;;;;;;5068660;28;20028;-56
2023/07/04 05:31:02;;;;;;;26.83;5.22;;;17.00;99.90;;;;;;5068710;28;20840;-56
2023/07/04 05:33:28;;;;;;;18.45;4.13;;;16.90;99.90;;;;;;5066637;28;20043;-55
2023/07/04 05:36:06;;;;;;;20.92;4.35;;;17.00;99.90;;;;;;5069169;28;20032;-56
2023/07/04 05:38:31;;;;;;;15.13;4.43;;;17.10;99.90;;;;;;5066344;28;20028;-56
2023/07/04 05:40:57;;;;;;;20.95;4.13;;;17.10;99.90;;;;;;5069064;28;20037;-55
2023/07/04 05:43:23;;;;;;;20.30;4.63;;;17.10;99.90;;;;;;5068189;28;20055;-56
2023/07/04 05:45:49;;;;;;;19.13;4.57;;;17.10;99.90;;;;;;5068126;28;20033;-56
2023/07/04 05:48:14;;;;;;;28.92;4.90;;;17.10;99.90;;;;;;5058467;28;20041;-55
2023/07/04 05:50:53;;;;;;;15.45;4.53;;;17.10;99.90;;;;;;5061277;28;20059;-56
2023/07/04 05:53:22;;;;;;;23.55;4.57;;;17.10;99.90;;;;;;5068415;28;20028;-56
2023/07/04 05:55:48;;;;;;;20.95;4.88;;;17.20;99.90;;;;;;5068735;28;20020;-56
2023/07/04 05:58:13;;;;;;;26.10;5.18;;;17.40;99.90;;;;;;5067264;28;20051;-56
2023/07/04 06:00:39;;;;;;;17.23;4.50;;;17.40;99.90;;;;;;5052422;28;20031;-56
2023/07/04 06:03:04;;;;;;;14.13;4.93;;;17.50;99.90;;;;;;5068203;28;20040;-56
2023/07/04 06:05:30;;;;;;;16.02;4.80;;;17.60;99.90;;;;;;5066984;28;20025;-56
2023/07/04 06:07:56;;;;;;;20.92;5.20;;;17.50;99.90;;;;;;5068660;28;20032;-60
2023/07/04 06:10:22;;;;;;;24.30;4.82;;;17.40;99.90;;;;;;5057705;28;20423;-60
2023/07/04 06:12:50;;;;;;;24.95;5.40;;;17.40;99.90;;;;;;5047926;28;20400;-60
2023/07/04 06:15:16;;;;;;;18.38;4.80;;;17.40;99.90;;;;;;5050911;28;20045;-60
2023/07/04 06:17:42;;;;;;;18.45;4.88;;;17.50;99.90;;;;;;5068365;28;20037;-60
2023/07/04 06:20:08;;;;;;;22.45;5.32;;;17.50;99.90;;;;;;5067628;28;20056;-60
2023/07/04 06:22:34;;;;;;;21.85;5.72;;;17.60;99.90;;;;;;5067434;28;20059;-61
2023/07/04 06:24:59;;;;;;;21.35;5.18;;;17.70;99.90;;;;;;5067608;28;20037;-60
2023/07/04 06:27:27;;;;;;;22.90;5.18;;;17.70;99.90;;;;;;5067810;28;20119;-61
2023/07/04 06:29:55;;;;;;;20.70;5.07;;;17.60;99.90;;;;;;5068185;28;20032;-61
2023/07/04 06:32:20;;;;;;;22.67;5.60;;;17.50;99.90;;;;;;5067029;28;20527;-60
2023/07/04 06:34:46;;;;;;;23.13;5.78;;;17.50;99.90;;;;;;5067483;28;20032;-61
2023/07/04 06:37:12;;;;;;;22.67;5.15;;;17.60;99.90;;;;;;5067098;28;20036;-60
2023/07/04 06:39:37;;;;;;;20.65;5.47;;;17.60;99.90;;;;;;5067590;28;20044;-60
2023/07/04 06:42:03;;;;;;;19.48;5.13;;;17.70;99.90;;;;;;5067332;28;20040;-60
2023/07/04 06:44:29;;;;;;;22.70;5.63;;;17.80;99.90;;;;;;5066362;28;20036;-61
2023/07/04 06:46:54;;;;;;;26.20;6.55;;;17.90;99.90;;;;;;5067027;28;20049;-61
2023/07/04 06:49:20;;;;;;;16.83;4.78;;;18.00;99.90;;;;;;5066430;28;20036;-60
2023/07/04 06:51:45;;;;;;;19.08;5.00;;;18.10;99.90;;;;;;5067756;28;20036;-61
2023/07/04 06:54:11;;;;;;;18.33;4.80;;;18.20;99.90;;;;;;5066016;28;20128;-60
2023/07/04 06:56:37;;;;;;;19.70;4.65;;;18.20;99.90;;;;;;5066563;28;20099;-61
2023/07/04 06:59:03;;;;;;;21.85;5.60;;;18.40;99.90;;;;;;5067022;28;20033;-60
2023/07/04 07:01:32;;;;;;;15.43;4.50;;;18.40;99.90;;;;;;5067154;28;20503;-60
2023/07/04 07:03:59;;;;;;;20.33;5.38;;;18.40;99.90;;;;;;5067045;28;20105;-61
2023/07/04 07:06:26;;;;;;;16.45;4.60;;;18.50;99.90;;;;;;5047729;28;20065;-61
2023/07/04 07:08:51;;;;;;;17.63;4.97;;;18.60;99.90;;;;;;5050434;28;20032;-61
2023/07/04 07:11:19;;;;;;;18.63;4.82;;;18.60;99.90;;;;;;5065824;28;20093;-61
2023/07/04 07:13:46;;;;;;;18.35;4.45;;;18.60;99.90;;;;;;5066810;28;20041;-62
2023/07/04 07:16:12;;;;;;;14.60;4.22;;;18.60;99.90;;;;;;5066905;28;20033;-60
2023/07/04 07:18:39;;;;;;;16.55;4.20;;;18.50;99.90;;;;;;5066637;28;20043;-61
2023/07/04 07:21:07;;;;;;;18.92;4.78;;;18.40;99.90;;;;;;5066562;28;20036;-60
2023/07/04 07:23:35;;;;;;;15.50;4.47;;;18.40;99.90;;;;;;5067003;28;20032;-60
2023/07/04 07:26:02;;;;;;;18.38;4.35;;;18.50;99.90;;;;;;5065967;28;20087;-61
2023/07/04 07:28:29;;;;;;;15.98;3.83;;;18.90;99.90;;;;;;5047407;28;20397;-60
2023/07/04 07:31:10;;;;;;;9.68;3.75;;;18.80;99.90;;;;;;5051847;28;20037;-60
2023/07/04 07:33:37;;;;;;;16.98;4.15;;;18.90;99.90;;;;;;5066035;28;20101;-60
2023/07/04 07:36:24;;;;;;;16.02;3.70;;;18.90;99.90;;;;;;5065619;28;20029;-60
2023/07/04 07:38:51;;;;;;;16.35;3.50;;;19.10;99.90;;;;;;5066280;28;20060;-61
2023/07/04 07:41:18;;;;;;;17.20;3.60;;;19.20;99.90;;;;;;5066470;28;20039;-61
2023/07/04 07:43:43;;;;;;;17.40;3.83;;;19.30;99.90;;;;;;5065915;28;20111;-61
2023/07/04 07:46:11;;;;;;;16.45;3.60;;;19.40;99.90;;;;;;5065448;28;20457;-61
2023/07/04 07:48:37;;;;;;;16.40;3.30;;;19.30;99.90;;;;;;5064350;28;20028;-60
2023/07/04 07:51:03;;;;;;;11.45;3.25;;;19.30;99.90;;;;;;5065879;28;20450;-61
2023/07/04 07:53:29;;;;;;;14.90;3.60;;;19.40;99.90;;;;;;5066631;28;20853;-60
2023/07/04 07:55:55;;;;;;;10.45;3.03;;;19.50;99.90;;;;;;5066210;28;20024;-60
2023/07/04 07:58:20;;;;;;;17.67;3.50;;;19.60;99.90;;;;;;5065651;28;20029;-60
2023/07/04 08:00:46;;;;;;;15.50;3.50;;;19.80;99.90;;;;;;5057583;28;20024;-61
2023/07/04 08:03:12;;;;;;;13.35;3.60;;;19.90;99.90;;;;;;5065602;28;20107;-61
2023/07/04 08:05:42;;;;;;;12.48;3.08;;;20.10;99.90;;;;;;5065981;28;20036;-61
2023/07/04 08:08:09;;;;;;;12.05;3.78;;;20.10;99.90;;;;;;5065880;28;20495;-60
2023/07/04 08:10:36;;;;;;;11.27;3.53;;;20.20;99.90;;;;;;5062585;28;20517;-61
2023/07/04 08:13:02;;;;;;;17.35;3.80;;;20.20;99.90;;;;;;5045664;28;20068;-60
2023/07/04 08:15:27;;;;;;;11.00;3.85;;;20.10;99.90;;;;;;5050753;28;20044;-60
2023/07/04 08:17:53;;;;;;;14.23;3.45;;;19.80;99.90;;;;;;5066223;28;20040;-61
2023/07/04 08:20:21;;;;;;;12.15;3.08;;;19.80;99.90;;;;;;5065759;28;20032;-60
2023/07/04 08:22:47;;;;;;;16.00;3.55;;;19.80;99.90;;;;;;5065530;28;20082;-60
2023/07/04 08:25:13;;;;;;;12.90;3.13;;;19.80;99.90;;;;;;5065231;28;20569;-60
2023/07/04 08:27:38;;;;;;;14.80;3.10;;;19.80;99.90;;;;;;5065753;28;20740;-60
2023/07/04 08:30:04;;;;;;;14.02;2.88;;;20.00;99.90;;;;;;5065653;28;20064;-60
2023/07/04 08:32:30;;;;;;;12.50;3.22;;;20.20;99.90;;;;;;5063800;28;20115;-60
2023/07/04 08:34:56;;;;;;;16.25;3.65;;;20.20;99.90;;;;;;5065371;28;20626;-61
2023/07/04 08:37:21;;;;;;;10.15;2.88;;;20.10;99.90;;;;;;5065835;28;20040;-60
2023/07/04 08:39:48;;;;;;;13.52;3.22;;;20.10;99.90;;;;;;5065862;28;20048;-61
2023/07/04 08:42:17;;;;;;;13.35;2.78;;;20.10;99.90;;;;;;5065216;28;20181;-60
2023/07/04 08:44:45;;;;;;;10.25;2.78;;;20.40;99.90;;;;;;5064638;28;20045;-61
2023/07/04 08:47:14;;;;;;;11.52;2.95;;;20.30;99.90;;;;;;5067063;28;20536;-60
2023/07/04 08:49:42;;;;;;;10.05;2.47;;;20.30;99.90;;;;;;5065609;28;20039;-60
2023/07/04 08:52:21;;;;;;;11.02;2.78;;;20.40;99.90;;;;;;5065417;28;20040;-60
2023/07/04 08:54:47;;;;;;;11.13;3.08;;;20.40;99.90;;;;;;5064576;28;20060;-60
2023/07/04 08:57:23;;;;;;;11.02;2.60;;;20.50;99.90;;;;;;5064922;28;20037;-60
2023/07/04 09:00:06;;;;;;;10.35;2.75;;;20.50;99.90;;;;;;5065888;28;20024;-61
2023/07/04 09:02:50;;;;;;;9.30;3.13;;;20.50;99.90;;;;;;5065202;28;20032;-60
2023/07/04 09:05:43;;;;;;;11.15;2.78;;;20.60;99.90;;;;;;5063125;28;20215;-60
2023/07/04 09:08:41;;;;;;;13.60;3.07;;;20.70;99.90;;;;;;5065286;28;20039;-60
2023/07/04 09:11:09;;;;;;;11.45;3.28;;;20.80;99.90;;;;;;5045190;28;20562;-61
2023/07/04 09:13:39;;;;;;;13.25;2.70;;;20.80;99.90;;;;;;5047209;28;20087;-61
2023/07/04 09:16:09;;;;;;;13.85;2.70;;;20.90;99.90;;;;;;5058899;28;20457;-60
2023/07/04 09:19:00;;;;;;;10.25;2.42;;;20.90;99.90;;;;;;5068521;28;20090;-61
2023/07/04 09:21:26;;;;;;;9.80;2.58;;;20.60;99.90;;;;;;5068607;28;20033;-61
2023/07/04 09:23:54;;;;;;;10.32;2.83;;;20.60;99.90;;;;;;5067256;28;20039;-61
2023/07/04 09:26:24;;;;;;;11.32;3.03;;;20.60;99.90;;;;;;5068461;28;20510;-60
2023/07/04 09:28:52;;;;;;;9.50;2.60;;;20.80;99.90;;;;;;5068600;28;20033;-60
2023/07/04 09:31:19;;;;;;;13.27;2.67;;;20.80;99.90;;;;;;5068683;28;20075;-60
2023/07/04 09:33:47;;;;;;;13.63;2.90;;;20.70;99.90;;;;;;5068585;28;20094;-61
2023/07/04 09:36:13;;;;;;;7.13;2.40;;;20.60;99.90;;;;;;5068052;28;20035;-60
2023/07/04 09:39:00;;;;;;;9.93;2.70;;;20.70;99.90;;;;;;5066812;28;20499;-61
2023/07/04 09:41:29;;;;;;;12.00;2.38;;;20.90;99.90;;;;;;5068424;28;20025;-60
2023/07/04 09:43:56;;;;;;;10.25;2.70;;;20.80;99.90;;;;;;5068396;28;20032;-61
2023/07/04 09:46:28;;;;;;;9.90;2.72;;;20.70;99.90;;;;;;5067778;28;20067;-60
2023/07/04 09:49:15;;;;;;;8.68;2.40;;;20.80;99.90;;;;;;5068852;28;20047;-61
2023/07/04 09:51:40;;;;;;;12.55;2.85;;;20.80;99.90;;;;;;5048412;28;20115;-61
2023/07/04 09:54:14;;;;;;;11.52;2.45;;;20.90;99.90;;;;;;5047965;28;20129;-60
2023/07/04 09:56:40;;;;;;;8.35;2.67;;;20.90;99.90;;;;;;5061017;28;20112;-61
2023/07/04 09:59:15;;;;;;;9.75;2.45;;;20.90;99.90;;;;;;5067891;28;20099;-60
2023/07/04 10:01:46;;;;;;;7.85;2.65;;;21.00;99.90;;;;;;5067868;28;20212;-62
2023/07/04 10:04:21;;;;;;;7.05;2.17;;;21.00;99.90;;;;;;5067854;28;20064;-60
2023/07/04 10:06:50;;;;;;;11.82;3.03;;;21.10;99.90;;;;;;5067930;28;20090;-60
2023/07/04 10:09:20;;;;;;;7.75;2.10;;;21.30;99.90;;;;;;5068232;28;20059;-61
2023/07/04 10:11:48;;;;;;;8.73;2.42;;;21.20;99.90;;;;;;5067625;28;20036;-61
2023/07/04 10:14:15;;;;;;;9.02;2.60;;;21.40;99.90;;;;;;5067685;28;20438;-61
2023/07/04 10:16:46;;;;;;;8.05;2.35;;;21.50;99.90;;;;;;5069262;28;20056;-60
2023/07/04 10:19:15;;;;;;;8.68;2.22;;;21.60;99.90;;;;;;5067622;28;20101;-61
2023/07/04 10:21:42;;;;;;;9.65;2.75;;;21.60;99.90;;;;;;5068291;28;20294;-61
2023/07/04 10:24:13;;;;;;;8.93;2.47;;;21.70;99.90;;;;;;5066017;28;20496;-60
2023/07/04 10:26:39;;;;;;;11.45;2.65;;;21.70;99.90;;;;;;5067831;28;20116;-61
2023/07/04 10:29:05;;;;;;;9.82;2.80;;;21.70;99.90;;;;;;5067526;28;20120;-60
2023/07/04 10:31:31;;;;;;;6.25;2.35;;;21.80;99.90;;;;;;5067607;28;20433;-62
2023/07/04 10:34:01;;;;;;;8.50;2.10;;;21.70;99.90;;;;;;5067344;28;20042;-61
2023/07/04 10:36:33;;;;;;;7.72;2.28;;;21.80;99.90;;;;;;5069078;28;20039;-61
2023/07/04 10:39:06;;;;;;;9.68;2.42;;;21.90;99.90;;;;;;5069626;28;20056;-61
2023/07/04 10:41:57;;;;;;;6.65;2.30;;;22.10;99.90;;;;;;5069331;28;20029;-60
2023/07/04 10:44:25;;;;;;;10.15;2.60;;;22.10;99.90;;;;;;5067039;28;20034;-61
2023/07/04 10:46:58;;;;;;;8.25;2.40;;;22.10;99.90;;;;;;5065332;28;20033;-60
2023/07/04 10:49:28;;;;;;;10.40;2.45;;;22.20;99.90;;;;;;5068699;28;20032;-60
2023/07/04 10:52:00;;;;;;;7.35;2.08;;;22.10;99.90;;;;;;5068421;28;20090;-61
2023/07/04 10:54:25;;;;;;;6.88;2.22;;;21.80;99.90;;;;;;5068532;28;20052;-60
2023/07/04 10:56:58;;;;;;;10.68;2.30;;;21.70;99.90;;;;;;5067095;28;20063;-61
2023/07/04 10:59:35;;;;;;;8.48;2.28;;;21.60;99.90;;;;;;5068983;28;20032;-60
2023/07/04 11:02:24;;;;;;;7.65;2.25;;;21.60;99.90;;;;;;5069072;28;20485;-61
2023/07/04 11:04:51;;;;;;;8.50;2.00;;;21.60;99.90;;;;;;5060513;28;20425;-60
2023/07/04 11:07:23;;;;;;;6.47;2.47;;;21.70;99.90;;;;;;5068239;28;20029;-61
2023/07/04 11:09:54;;;;;;;10.38;2.45;;;21.80;99.90;;;;;;5068466;28;20040;-60
2023/07/04 11:12:26;;;;;;;9.50;2.47;;;21.90;99.90;;;;;;5068471;28;20036;-60
2023/07/04 11:14:59;;;;;;;9.17;2.73;;;21.80;99.90;;;;;;5068771;28;20284;-60
2023/07/04 11:17:26;;;;;;;8.17;2.20;;;21.80;99.90;;;;;;5064595;28;20116;-61
2023/07/04 11:19:55;;;;;;;7.50;2.25;;;21.90;99.90;;;;;;5068899;28;20439;-61
2023/07/04 11:22:51;;;;;;;7.88;2.40;;;21.90;99.90;;;;;;5068249;28;20450;-60
2023/07/04 11:25:32;;;;;;;9.63;3.05;;;22.10;99.90;;;;;;5068233;28;20540;-60
2023/07/04 11:28:25;;;;;;;7.72;2.72;;;22.20;99.90;;;;;;5068455;28;20036;-61
2023/07/04 11:30:52;;;;;;;9.55;2.58;;;22.20;99.90;;;;;;5054283;28;20025;-61
2023/07/04 11:33:38;;;;;;;7.03;2.58;;;22.30;99.90;;;;;;5066801;28;20032;-61
2023/07/04 11:36:18;;;;;;;9.35;2.78;;;22.40;99.90;;;;;;5067092;28;20510;-60
2023/07/04 11:38:51;;;;;;;8.82;2.67;;;22.30;99.90;;;;;;5068427;28;20039;-60
2023/07/04 11:41:25;;;;;;;8.52;2.45;;;22.30;99.90;;;;;;5067534;28;20028;-60
2023/07/04 11:43:51;;;;;;;8.18;3.00;;;22.30;99.90;;;;;;5067956;28;20043;-62
2023/07/04 11:46:25;;;;;;;9.50;3.20;;;22.40;99.90;;;;;;5067646;28;20043;-61
2023/07/04 11:48:55;;;;;;;8.45;3.05;;;22.50;99.90;;;;;;5068274;28;20115;-62
2023/07/04 11:51:24;;;;;;;12.60;3.78;;;22.50;99.90;;;;;;5058211;28;20037;-60
2023/07/04 11:54:07;;;;;;;9.07;2.90;;;22.50;99.90;;;;;;5048029;28;20033;-62
2023/07/04 11:56:37;;;;;;;9.88;3.40;;;22.60;99.90;;;;;;5059323;28;20391;-62
2023/07/04 11:59:11;;;;;;;10.27;3.13;;;22.80;99.90;;;;;;5067748;28;20028;-60
2023/07/04 12:01:52;;;;;;;13.25;3.42;;;22.80;99.90;;;;;;5064417;28;20520;-61
2023/07/04 12:04:41;;;;;;;8.70;2.88;;;22.80;99.90;;;;;;5047493;28;20136;-60
2023/07/04 12:07:34;;;;;;;12.93;3.38;;;22.70;99.90;;;;;;5041876;28;20090;-62
2023/07/04 12:10:19;;;;;;;8.45;3.25;;;22.80;99.90;;;;;;5056614;28;20053;-61
2023/07/04 12:12:46;;;;;;;13.32;3.20;;;22.90;99.90;;;;;;5063507;28;20036;-61
2023/07/04 12:15:24;;;;;;;11.02;3.15;;;22.90;99.90;;;;;;5048035;28;20040;-60
2023/07/04 12:17:51;;;;;;;6.70;3.03;;;22.80;99.90;;;;;;5066168;28;20041;-61
2023/07/04 12:20:20;;;;;;;12.02;3.33;;;22.80;99.90;;;;;;5066074;28;20391;-61
2023/07/04 12:22:52;;;;;;;13.18;3.15;;;22.90;99.90;;;;;;5066638;28;20407;-61
2023/07/04 12:25:44;;;;;;;9.05;3.17;;;22.80;99.90;;;;;;5064433;28;20055;-61
2023/07/04 12:28:11;;;;;;;13.70;3.50;;;22.70;99.90;;;;;;5065514;28;20028;-60
2023/07/04 12:30:40;;;;;;;8.85;3.05;;;22.80;99.90;;;;;;5066212;28;20041;-61
2023/07/04 12:33:22;;;;;;;7.55;3.22;;;22.80;99.90;;;;;;5065941;28;20032;-60
2023/07/04 12:35:54;;;;;;;11.07;3.35;;;22.80;99.90;;;;;;5064676;28;20178;-62
2023/07/04 12:38:22;;;;;;;7.38;3.20;;;22.90;99.90;;;;;;5065457;28;20081;-61
2023/07/04 12:40:49;;;;;;;7.18;2.95;;;22.80;99.90;;;;;;5066200;28;20475;-61
2023/07/04 12:43:15;;;;;;;9.68;3.20;;;23.00;99.90;;;;;;5065430;28;20476;-60
2023/07/04 12:45:41;;;;;;;8.85;3.40;;;23.00;99.90;;;;;;5065119;28;20449;-61
2023/07/04 12:48:09;;;;;;;12.77;3.45;;;22.90;99.90;;;;;;5054582;28;20085;-60